Iliamna, AK (99606)

6:08 PM AKDT on September 20, 2014 (GMT -0800)
Iliamna | Change Station
CLOSE
Current Station
Airport
Location: Iliamna,
Elevation: 161 ft
Nearby Weather Stations

Elev 161 ft 59.75 °N, 154.91 °W | Updated 15 minutes ago

Mostly Cloudy
Mostly Cloudy
56 °F
Feels Like 56 °F
N
10
Wind Variable Wind from SSE

Today
High -- | Low -- °F
--% Chance of Precip.
Yesterday
High -- | Low -- °F
Precip. -- in
8:01 AM 8:26 PM
Waning Crescent, 9% visible
Pressure 29.62 in
Visibility 10.0 miles
Clouds Mostly Cloudy 9000 ft
Dew Point 45 °F
Humidity 67%
Rainfall 0.00 in
Snow Depth 0 in , 4 in , 0 in
UV 1 out of 12
Pollen Not available.
Air Quality Not available.
Flu Activity Not available.
METAR PAIL 210153Z AUTO 15009KT 10SM BKN090 13/07 A2961 RMK AO2 SLP030 T01330072 TSNO

More Conditions Fewer Conditions

Pressure 29.62 in
Visibility 10.0 miles
Clouds Mostly Cloudy 9000 ft
Dew Point 45 °F
Humidity 67%
Rainfall 0.00 in
Snow Depth 0 in , 4 in , 0 in
UV 1 out of 12
Pollen Not available.
Air Quality Not available.
Flu Activity Not available.
METAR PAIL 210153Z AUTO 15009KT 10SM BKN090 13/07 A2961 RMK AO2 SLP030 T01330072 TSNO

More Conditions Fewer Conditions

10-Day Weather Forecast

Almanac

Astronomy

Sep. 20, 2014 Rise Set
Actual Time 8:01 AM AKDT 8:26 PM AKDT
Civil Twilight 7:20 AM AKDT 9:07 PM AKDT
Nautical Twilight 6:30 AM AKDT 9:56 PM AKDT
Astronomical Twilight 5:35 AM AKDT 10:51 PM AKDT
Moon 4:12 AM AKDT (9/20) 7:05 PM AKDT (9/20)
Length of Visible Light 13h 47m
Length of Day
12h 24m
Tomorrow will be 5m 18s shorter.
Waning Crescent, 9% of the Moon is Illuminated
Today
Waning Crescent
Sep 24
New
Oct 1
First Quarter
Oct 8
Full
Oct 15
Last Quarter

Today's Extremes

State Highs State Lows

Community

WunderPhotos

Upload Photos

1,755,032 photos uploaded!

WunderBlogs® & News

Nearby

Snow Depth

Station Depth Elevation
Gobblers Knob 0 in 2030 ft
MF Bradley River 4 in 2300 ft
Grouse Creek Divide 0 in 700 ft
Upper Tsaina River 0 in 1750 ft
Munson Ridge 1 in 3100 ft

Earthquake Activity

City Distance Mag. Time & Date
No recent earthquake activity has been reported nearby.
Minimum magnitude displayed is 2.5.

Coastal Water Temperatures

Place Temperature
No Stations Reporting

Nearby Weather Stations